sensor_id;sensor_type;location;lat;lon;timestamp;P1;durP1;ratioP1;P2;durP2;ratioP2
31210;SDS011;17836;50.948;3.946;2022-07-11T00:00:38;1.75;;;1.65;;
31210;SDS011;17836;50.948;3.946;2022-07-11T00:03:04;3.00;;;1.90;;
31210;SDS011;17836;50.948;3.946;2022-07-11T00:05:30;2.78;;;1.85;;
31210;SDS011;17836;50.948;3.946;2022-07-11T00:07:56;5.63;;;2.13;;
31210;SDS011;17836;50.948;3.946;2022-07-11T00:10:21;2.43;;;2.10;;
31210;SDS011;17836;50.948;3.946;2022-07-11T00:12:46;2.50;;;2.30;;
31210;SDS011;17836;50.948;3.946;2022-07-11T00:15:12;2.28;;;1.98;;
31210;SDS011;17836;50.948;3.946;2022-07-11T00:17:38;2.40;;;2.20;;
31210;SDS011;17836;50.948;3.946;2022-07-11T00:20:04;2.30;;;2.10;;
31210;SDS011;17836;50.948;3.946;2022-07-11T00:22:29;2.65;;;2.45;;
31210;SDS011;17836;50.948;3.946;2022-07-11T00:24:55;2.88;;;2.67;;
31210;SDS011;17836;50.948;3.946;2022-07-11T00:27:21;2.63;;;2.25;;
31210;SDS011;17836;50.948;3.946;2022-07-11T00:29:46;2.40;;;2.20;;
31210;SDS011;17836;50.948;3.946;2022-07-11T00:32:12;4.37;;;2.13;;
31210;SDS011;17836;50.948;3.946;2022-07-11T00:34:37;2.63;;;2.42;;
31210;SDS011;17836;50.948;3.946;2022-07-11T00:37:03;1.95;;;1.85;;
31210;SDS011;17836;50.948;3.946;2022-07-11T00:39:28;3.45;;;2.05;;
31210;SDS011;17836;50.948;3.946;2022-07-11T00:41:53;2.40;;;2.20;;
31210;SDS011;17836;50.948;3.946;2022-07-11T00:44:19;1.95;;;1.75;;
31210;SDS011;17836;50.948;3.946;2022-07-11T00:46:44;2.07;;;1.80;;
31210;SDS011;17836;50.948;3.946;2022-07-11T00:49:10;4.40;;;3.10;;
31210;SDS011;17836;50.948;3.946;2022-07-11T00:51:35;4.05;;;2.50;;
31210;SDS011;17836;50.948;3.946;2022-07-11T00:54:00;2.67;;;2.40;;
31210;SDS011;17836;50.948;3.946;2022-07-11T00:56:27;2.83;;;2.30;;
31210;SDS011;17836;50.948;3.946;2022-07-11T00:58:52;2.28;;;2.05;;
31210;SDS011;17836;50.948;3.946;2022-07-11T01:01:19;4.68;;;2.53;;
31210;SDS011;17836;50.948;3.946;2022-07-11T01:03:44;2.63;;;2.40;;
31210;SDS011;17836;50.948;3.946;2022-07-11T01:06:10;3.25;;;1.92;;
31210;SDS011;17836;50.948;3.946;2022-07-11T01:08:36;2.88;;;2.60;;
31210;SDS011;17836;50.948;3.946;2022-07-11T01:11:02;3.92;;;2.70;;
31210;SDS011;17836;50.948;3.946;2022-07-11T01:13:28;2.28;;;2.10;;
31210;SDS011;17836;50.948;3.946;2022-07-11T01:18:43;2.42;;;2.20;;
31210;SDS011;17836;50.948;3.946;2022-07-11T01:21:22;2.58;;;2.38;;
31210;SDS011;17836;50.948;3.946;2022-07-11T01:23:48;2.50;;;2.30;;
31210;SDS011;17836;50.948;3.946;2022-07-11T01:26:14;2.40;;;2.20;;
31210;SDS011;17836;50.948;3.946;2022-07-11T01:28:40;2.78;;;2.50;;
31210;SDS011;17836;50.948;3.946;2022-07-11T01:31:05;3.73;;;2.50;;
31210;SDS011;17836;50.948;3.946;2022-07-11T01:33:34;2.93;;;2.53;;
31210;SDS011;17836;50.948;3.946;2022-07-11T01:35:59;2.85;;;2.47;;
31210;SDS011;17836;50.948;3.946;2022-07-11T01:38:28;4.10;;;2.95;;
31210;SDS011;17836;50.948;3.946;2022-07-11T01:40:54;2.97;;;2.72;;
31210;SDS011;17836;50.948;3.946;2022-07-11T01:43:19;5.97;;;3.10;;
31210;SDS011;17836;50.948;3.946;2022-07-11T01:45:44;2.87;;;2.67;;
31210;SDS011;17836;50.948;3.946;2022-07-11T01:48:10;3.45;;;2.67;;
31210;SDS011;17836;50.948;3.946;2022-07-11T01:50:35;3.37;;;2.57;;
31210;SDS011;17836;50.948;3.946;2022-07-11T01:53:00;3.45;;;3.15;;
31210;SDS011;17836;50.948;3.946;2022-07-11T01:55:27;3.90;;;3.00;;
31210;SDS011;17836;50.948;3.946;2022-07-11T01:57:53;5.50;;;3.78;;
31210;SDS011;17836;50.948;3.946;2022-07-11T02:00:18;3.30;;;3.00;;
31210;SDS011;17836;50.948;3.946;2022-07-11T02:02:43;4.03;;;3.38;;
31210;SDS011;17836;50.948;3.946;2022-07-11T02:05:09;4.05;;;3.47;;
31210;SDS011;17836;50.948;3.946;2022-07-11T02:07:34;3.58;;;2.83;;
31210;SDS011;17836;50.948;3.946;2022-07-11T02:10:18;4.05;;;3.35;;
31210;SDS011;17836;50.948;3.946;2022-07-11T02:12:43;3.88;;;3.58;;
31210;SDS011;17836;50.948;3.946;2022-07-11T02:15:09;3.95;;;3.20;;
31210;SDS011;17836;50.948;3.946;2022-07-11T02:17:34;5.38;;;3.63;;
31210;SDS011;17836;50.948;3.946;2022-07-11T02:20:00;4.20;;;3.80;;
31210;SDS011;17836;50.948;3.946;2022-07-11T02:22:25;4.57;;;3.60;;
31210;SDS011;17836;50.948;3.946;2022-07-11T02:24:52;3.80;;;3.35;;
31210;SDS011;17836;50.948;3.946;2022-07-11T02:27:17;5.87;;;3.73;;
31210;SDS011;17836;50.948;3.946;2022-07-11T02:29:43;3.92;;;3.10;;
31210;SDS011;17836;50.948;3.946;2022-07-11T02:32:08;3.83;;;3.47;;
31210;SDS011;17836;50.948;3.946;2022-07-11T02:34:36;4.38;;;3.58;;
31210;SDS011;17836;50.948;3.946;2022-07-11T02:37:01;3.65;;;3.35;;
31210;SDS011;17836;50.948;3.946;2022-07-11T02:39:26;5.47;;;3.63;;
31210;SDS011;17836;50.948;3.946;2022-07-11T02:41:52;7.47;;;3.88;;
31210;SDS011;17836;50.948;3.946;2022-07-11T02:44:17;4.35;;;3.72;;
31210;SDS011;17836;50.948;3.946;2022-07-11T02:46:44;5.32;;;4.82;;
31210;SDS011;17836;50.948;3.946;2022-07-11T02:49:10;3.77;;;3.47;;
31210;SDS011;17836;50.948;3.946;2022-07-11T02:51:35;5.17;;;4.67;;
31210;SDS011;17836;50.948;3.946;2022-07-11T02:54:00;8.03;;;4.90;;
31210;SDS011;17836;50.948;3.946;2022-07-11T02:56:25;4.50;;;3.47;;
31210;SDS011;17836;50.948;3.946;2022-07-11T02:58:50;5.60;;;5.10;;
31210;SDS011;17836;50.948;3.946;2022-07-11T03:01:16;5.13;;;4.63;;
31210;SDS011;17836;50.948;3.946;2022-07-11T03:03:41;5.83;;;4.97;;
31210;SDS011;17836;50.948;3.946;2022-07-11T03:06:06;5.93;;;5.43;;
31210;SDS011;17836;50.948;3.946;2022-07-11T03:08:32;7.77;;;6.20;;
31210;SDS011;17836;50.948;3.946;2022-07-11T03:10:57;7.75;;;6.03;;
31210;SDS011;17836;50.948;3.946;2022-07-11T03:13:22;5.77;;;5.17;;
31210;SDS011;17836;50.948;3.946;2022-07-11T03:15:50;6.25;;;5.65;;
31210;SDS011;17836;50.948;3.946;2022-07-11T03:18:16;6.63;;;5.93;;
31210;SDS011;17836;50.948;3.946;2022-07-11T03:20:41;9.37;;;6.00;;
31210;SDS011;17836;50.948;3.946;2022-07-11T03:23:07;6.60;;;5.80;;
31210;SDS011;17836;50.948;3.946;2022-07-11T03:25:32;5.72;;;5.13;;
31210;SDS011;17836;50.948;3.946;2022-07-11T03:27:57;5.53;;;5.03;;
31210;SDS011;17836;50.948;3.946;2022-07-11T03:30:23;4.88;;;4.40;;
31210;SDS011;17836;50.948;3.946;2022-07-11T03:32:49;5.35;;;4.55;;
31210;SDS011;17836;50.948;3.946;2022-07-11T03:35:14;6.13;;;4.70;;
31210;SDS011;17836;50.948;3.946;2022-07-11T03:37:57;4.88;;;4.47;;
31210;SDS011;17836;50.948;3.946;2022-07-11T03:40:22;5.47;;;4.87;;
31210;SDS011;17836;50.948;3.946;2022-07-11T03:42:48;8.20;;;5.23;;
31210;SDS011;17836;50.948;3.946;2022-07-11T03:45:13;5.18;;;4.68;;
31210;SDS011;17836;50.948;3.946;2022-07-11T03:47:38;8.40;;;5.75;;
31210;SDS011;17836;50.948;3.946;2022-07-11T03:50:04;6.18;;;5.60;;
31210;SDS011;17836;50.948;3.946;2022-07-11T03:52:29;5.90;;;5.40;;
31210;SDS011;17836;50.948;3.946;2022-07-11T03:54:55;9.43;;;5.20;;
31210;SDS011;17836;50.948;3.946;2022-07-11T03:57:20;5.60;;;5.10;;
31210;SDS011;17836;50.948;3.946;2022-07-11T03:59:45;6.27;;;5.67;;
31210;SDS011;17836;50.948;3.946;2022-07-11T04:02:11;6.93;;;6.00;;
31210;SDS011;17836;50.948;3.946;2022-07-11T04:04:36;7.93;;;4.77;;
31210;SDS011;17836;50.948;3.946;2022-07-11T04:07:01;7.60;;;5.25;;
31210;SDS011;17836;50.948;3.946;2022-07-11T04:09:27;6.88;;;5.57;;
31210;SDS011;17836;50.948;3.946;2022-07-11T04:11:52;7.27;;;5.53;;
31210;SDS011;17836;50.948;3.946;2022-07-11T04:14:17;6.93;;;6.25;;
31210;SDS011;17836;50.948;3.946;2022-07-11T04:16:43;7.37;;;6.47;;
31210;SDS011;17836;50.948;3.946;2022-07-11T04:19:08;7.33;;;6.17;;
31210;SDS011;17836;50.948;3.946;2022-07-11T04:21:33;8.03;;;7.23;;
31210;SDS011;17836;50.948;3.946;2022-07-11T04:23:58;8.77;;;7.87;;
31210;SDS011;17836;50.948;3.946;2022-07-11T04:26:23;12.30;;;8.57;;
31210;SDS011;17836;50.948;3.946;2022-07-11T04:28:49;8.63;;;7.07;;
31210;SDS011;17836;50.948;3.946;2022-07-11T04:31:14;9.63;;;6.20;;
31210;SDS011;17836;50.948;3.946;2022-07-11T04:33:39;11.00;;;7.13;;
31210;SDS011;17836;50.948;3.946;2022-07-11T04:36:04;10.38;;;7.85;;
31210;SDS011;17836;50.948;3.946;2022-07-11T04:38:30;7.45;;;6.35;;
31210;SDS011;17836;50.948;3.946;2022-07-11T04:40:55;9.38;;;7.47;;
31210;SDS011;17836;50.948;3.946;2022-07-11T04:43:21;7.07;;;6.13;;
31210;SDS011;17836;50.948;3.946;2022-07-11T04:45:46;8.00;;;7.13;;
31210;SDS011;17836;50.948;3.946;2022-07-11T04:48:11;7.43;;;6.65;;
31210;SDS011;17836;50.948;3.946;2022-07-11T04:50:37;7.65;;;6.88;;
31210;SDS011;17836;50.948;3.946;2022-07-11T04:53:02;9.98;;;6.80;;
31210;SDS011;17836;50.948;3.946;2022-07-11T04:55:29;13.20;;;7.90;;
31210;SDS011;17836;50.948;3.946;2022-07-11T04:57:55;9.65;;;8.65;;
31210;SDS011;17836;50.948;3.946;2022-07-11T05:00:20;12.10;;;9.02;;
31210;SDS011;17836;50.948;3.946;2022-07-11T05:02:46;10.97;;;9.60;;
31210;SDS011;17836;50.948;3.946;2022-07-11T05:05:11;9.68;;;8.75;;
31210;SDS011;17836;50.948;3.946;2022-07-11T05:07:37;13.27;;;8.55;;
31210;SDS011;17836;50.948;3.946;2022-07-11T05:10:02;13.45;;;9.80;;
31210;SDS011;17836;50.948;3.946;2022-07-11T05:12:28;13.93;;;10.57;;
31210;SDS011;17836;50.948;3.946;2022-07-11T05:14:53;17.08;;;10.50;;
31210;SDS011;17836;50.948;3.946;2022-07-11T05:17:20;10.77;;;9.30;;
31210;SDS011;17836;50.948;3.946;2022-07-11T05:19:45;18.50;;;10.88;;
31210;SDS011;17836;50.948;3.946;2022-07-11T05:22:11;14.70;;;11.18;;
31210;SDS011;17836;50.948;3.946;2022-07-11T05:24:36;16.90;;;12.98;;
31210;SDS011;17836;50.948;3.946;2022-07-11T05:27:02;15.37;;;12.20;;
31210;SDS011;17836;50.948;3.946;2022-07-11T05:29:27;19.40;;;13.02;;
31210;SDS011;17836;50.948;3.946;2022-07-11T05:31:53;22.85;;;14.25;;
31210;SDS011;17836;50.948;3.946;2022-07-11T05:34:18;23.10;;;13.87;;
31210;SDS011;17836;50.948;3.946;2022-07-11T05:36:43;23.60;;;14.05;;
31210;SDS011;17836;50.948;3.946;2022-07-11T05:39:09;16.88;;;12.88;;
31210;SDS011;17836;50.948;3.946;2022-07-11T05:41:35;18.25;;;12.55;;
31210;SDS011;17836;50.948;3.946;2022-07-11T05:44:00;14.38;;;11.48;;
31210;SDS011;17836;50.948;3.946;2022-07-11T05:46:25;17.13;;;11.23;;
31210;SDS011;17836;50.948;3.946;2022-07-11T05:48:53;13.48;;;9.75;;
31210;SDS011;17836;50.948;3.946;2022-07-11T05:51:18;12.80;;;9.40;;
31210;SDS011;17836;50.948;3.946;2022-07-11T05:53:44;13.15;;;8.98;;
31210;SDS011;17836;50.948;3.946;2022-07-11T05:56:12;9.93;;;8.73;;
31210;SDS011;17836;50.948;3.946;2022-07-11T05:58:37;9.73;;;8.40;;
31210;SDS011;17836;50.948;3.946;2022-07-11T06:01:03;8.55;;;7.53;;
31210;SDS011;17836;50.948;3.946;2022-07-11T06:03:28;9.57;;;7.25;;
31210;SDS011;17836;50.948;3.946;2022-07-11T06:05:54;9.33;;;7.53;;
31210;SDS011;17836;50.948;3.946;2022-07-11T06:08:19;8.27;;;7.40;;
31210;SDS011;17836;50.948;3.946;2022-07-11T06:11:03;8.23;;;7.05;;
31210;SDS011;17836;50.948;3.946;2022-07-11T06:13:28;9.97;;;7.07;;
31210;SDS011;17836;50.948;3.946;2022-07-11T06:15:55;10.05;;;7.40;;
31210;SDS011;17836;50.948;3.946;2022-07-11T06:18:20;7.30;;;6.60;;
31210;SDS011;17836;50.948;3.946;2022-07-11T06:20:45;9.13;;;7.88;;
31210;SDS011;17836;50.948;3.946;2022-07-11T06:23:11;7.73;;;6.63;;
31210;SDS011;17836;50.948;3.946;2022-07-11T06:25:36;9.63;;;8.63;;
31210;SDS011;17836;50.948;3.946;2022-07-11T06:28:02;8.68;;;7.65;;
31210;SDS011;17836;50.948;3.946;2022-07-11T06:30:28;8.90;;;8.07;;
31210;SDS011;17836;50.948;3.946;2022-07-11T06:32:53;13.70;;;10.83;;
31210;SDS011;17836;50.948;3.946;2022-07-11T06:35:18;11.43;;;10.03;;
31210;SDS011;17836;50.948;3.946;2022-07-11T06:37:44;13.10;;;10.63;;
31210;SDS011;17836;50.948;3.946;2022-07-11T06:40:09;15.18;;;12.35;;
31210;SDS011;17836;50.948;3.946;2022-07-11T06:42:36;14.57;;;11.50;;
31210;SDS011;17836;50.948;3.946;2022-07-11T06:45:02;12.63;;;11.07;;
31210;SDS011;17836;50.948;3.946;2022-07-11T06:47:27;14.25;;;11.90;;
31210;SDS011;17836;50.948;3.946;2022-07-11T06:49:52;14.63;;;11.77;;
31210;SDS011;17836;50.948;3.946;2022-07-11T06:52:17;11.47;;;10.27;;
31210;SDS011;17836;50.948;3.946;2022-07-11T06:54:43;15.87;;;11.97;;
31210;SDS011;17836;50.948;3.946;2022-07-11T06:57:08;16.73;;;12.30;;
31210;SDS011;17836;50.948;3.946;2022-07-11T06:59:33;18.20;;;12.07;;
31210;SDS011;17836;50.948;3.946;2022-07-11T07:01:59;16.35;;;12.95;;
31210;SDS011;17836;50.948;3.946;2022-07-11T07:04:25;15.68;;;11.70;;
31210;SDS011;17836;50.948;3.946;2022-07-11T07:06:51;19.30;;;14.00;;
31210;SDS011;17836;50.948;3.946;2022-07-11T07:09:16;14.20;;;12.00;;
31210;SDS011;17836;50.948;3.946;2022-07-11T07:11:41;19.20;;;12.25;;
31210;SDS011;17836;50.948;3.946;2022-07-11T07:14:06;19.50;;;12.93;;
31210;SDS011;17836;50.948;3.946;2022-07-11T07:16:32;19.00;;;12.70;;
31210;SDS011;17836;50.948;3.946;2022-07-11T07:18:57;17.45;;;12.70;;
31210;SDS011;17836;50.948;3.946;2022-07-11T07:21:22;15.43;;;12.17;;
31210;SDS011;17836;50.948;3.946;2022-07-11T07:23:48;15.87;;;11.40;;
31210;SDS011;17836;50.948;3.946;2022-07-11T07:26:13;17.95;;;12.43;;
31210;SDS011;17836;50.948;3.946;2022-07-11T07:28:39;17.50;;;11.25;;
31210;SDS011;17836;50.948;3.946;2022-07-11T07:31:05;17.67;;;11.77;;
31210;SDS011;17836;50.948;3.946;2022-07-11T07:33:31;18.30;;;11.88;;
31210;SDS011;17836;50.948;3.946;2022-07-11T07:35:56;18.30;;;12.43;;
31210;SDS011;17836;50.948;3.946;2022-07-11T07:38:21;15.37;;;12.13;;
31210;SDS011;17836;50.948;3.946;2022-07-11T07:40:46;20.93;;;13.37;;
31210;SDS011;17836;50.948;3.946;2022-07-11T07:43:12;20.92;;;13.55;;
31210;SDS011;17836;50.948;3.946;2022-07-11T07:45:38;21.02;;;13.30;;
31210;SDS011;17836;50.948;3.946;2022-07-11T07:48:03;21.55;;;13.30;;
31210;SDS011;17836;50.948;3.946;2022-07-11T07:50:29;26.20;;;14.48;;
31210;SDS011;17836;50.948;3.946;2022-07-11T07:52:54;17.67;;;11.80;;
31210;SDS011;17836;50.948;3.946;2022-07-11T07:55:19;24.83;;;14.45;;
31210;SDS011;17836;50.948;3.946;2022-07-11T07:57:45;23.15;;;13.40;;
31210;SDS011;17836;50.948;3.946;2022-07-11T08:00:11;20.73;;;12.30;;
31210;SDS011;17836;50.948;3.946;2022-07-11T08:02:55;23.20;;;11.13;;
31210;SDS011;17836;50.948;3.946;2022-07-11T08:05:21;16.50;;;11.45;;
31210;SDS011;17836;50.948;3.946;2022-07-11T08:07:46;17.98;;;10.50;;
31210;SDS011;17836;50.948;3.946;2022-07-11T08:10:12;23.30;;;12.88;;
31210;SDS011;17836;50.948;3.946;2022-07-11T08:12:39;16.23;;;11.35;;
31210;SDS011;17836;50.948;3.946;2022-07-11T08:15:05;18.52;;;12.02;;
31210;SDS011;17836;50.948;3.946;2022-07-11T08:17:30;18.55;;;11.18;;
31210;SDS011;17836;50.948;3.946;2022-07-11T08:19:56;17.58;;;10.25;;
31210;SDS011;17836;50.948;3.946;2022-07-11T08:22:21;16.13;;;9.97;;
31210;SDS011;17836;50.948;3.946;2022-07-11T08:24:46;15.13;;;10.60;;
31210;SDS011;17836;50.948;3.946;2022-07-11T08:27:11;15.23;;;10.63;;
31210;SDS011;17836;50.948;3.946;2022-07-11T08:29:37;9.75;;;7.78;;
31210;SDS011;17836;50.948;3.946;2022-07-11T08:32:03;9.47;;;7.73;;
31210;SDS011;17836;50.948;3.946;2022-07-11T08:34:28;15.25;;;8.80;;
31210;SDS011;17836;50.948;3.946;2022-07-11T08:36:54;9.68;;;7.72;;
31210;SDS011;17836;50.948;3.946;2022-07-11T08:39:20;12.03;;;9.00;;
31210;SDS011;17836;50.948;3.946;2022-07-11T08:41:45;15.68;;;9.00;;
31210;SDS011;17836;50.948;3.946;2022-07-11T08:44:11;11.57;;;8.70;;
31210;SDS011;17836;50.948;3.946;2022-07-11T08:46:39;8.68;;;7.32;;
31210;SDS011;17836;50.948;3.946;2022-07-11T08:49:05;9.50;;;6.85;;
31210;SDS011;17836;50.948;3.946;2022-07-11T08:51:31;7.70;;;5.97;;
31210;SDS011;17836;50.948;3.946;2022-07-11T08:53:56;6.28;;;5.25;;
31210;SDS011;17836;50.948;3.946;2022-07-11T08:56:21;8.17;;;6.63;;
31210;SDS011;17836;50.948;3.946;2022-07-11T08:58:47;6.38;;;5.72;;
31210;SDS011;17836;50.948;3.946;2022-07-11T09:01:16;6.63;;;5.40;;
31210;SDS011;17836;50.948;3.946;2022-07-11T09:03:42;7.05;;;6.35;;
31210;SDS011;17836;50.948;3.946;2022-07-11T09:06:07;6.80;;;6.10;;
31210;SDS011;17836;50.948;3.946;2022-07-11T09:08:33;5.90;;;5.30;;
31210;SDS011;17836;50.948;3.946;2022-07-11T09:10:59;8.90;;;8.00;;
31210;SDS011;17836;50.948;3.946;2022-07-11T09:13:27;7.65;;;6.82;;
31210;SDS011;17836;50.948;3.946;2022-07-11T09:15:54;9.55;;;7.38;;
31210;SDS011;17836;50.948;3.946;2022-07-11T09:20:57;5.60;;;5.10;;
31210;SDS011;17836;50.948;3.946;2022-07-11T09:26:25;6.47;;;5.72;;
31210;SDS011;17836;50.948;3.946;2022-07-11T09:29:00;6.85;;;6.15;;
31210;SDS011;17836;50.948;3.946;2022-07-11T09:31:26;6.88;;;6.10;;
31210;SDS011;17836;50.948;3.946;2022-07-11T09:33:58;13.80;;;6.88;;
31210;SDS011;17836;50.948;3.946;2022-07-11T09:36:34;6.65;;;5.82;;
31210;SDS011;17836;50.948;3.946;2022-07-11T09:39:01;5.93;;;5.32;;
31210;SDS011;17836;50.948;3.946;2022-07-11T09:41:26;8.32;;;5.82;;
31210;SDS011;17836;50.948;3.946;2022-07-11T09:43:51;6.33;;;4.93;;
31210;SDS011;17836;50.948;3.946;2022-07-11T09:46:23;6.80;;;4.80;;
31210;SDS011;17836;50.948;3.946;2022-07-11T09:48:48;6.00;;;5.38;;
31210;SDS011;17836;50.948;3.946;2022-07-11T09:51:18;6.30;;;5.47;;
31210;SDS011;17836;50.948;3.946;2022-07-11T09:53:54;6.18;;;5.57;;
31210;SDS011;17836;50.948;3.946;2022-07-11T09:56:23;5.10;;;4.60;;
31210;SDS011;17836;50.948;3.946;2022-07-11T09:58:50;6.10;;;5.60;;
31210;SDS011;17836;50.948;3.946;2022-07-11T10:01:23;6.40;;;5.80;;
31210;SDS011;17836;50.948;3.946;2022-07-11T10:03:49;6.88;;;5.93;;
31210;SDS011;17836;50.948;3.946;2022-07-11T10:06:14;6.33;;;5.73;;
31210;SDS011;17836;50.948;3.946;2022-07-11T10:08:39;7.93;;;5.97;;
31210;SDS011;17836;50.948;3.946;2022-07-11T10:11:04;5.57;;;5.03;;
31210;SDS011;17836;50.948;3.946;2022-07-11T10:13:30;6.30;;;5.70;;
31210;SDS011;17836;50.948;3.946;2022-07-11T10:15:55;7.78;;;7.07;;
31210;SDS011;17836;50.948;3.946;2022-07-11T10:18:28;6.88;;;6.13;;
31210;SDS011;17836;50.948;3.946;2022-07-11T10:20:57;6.20;;;5.70;;
31210;SDS011;17836;50.948;3.946;2022-07-11T10:23:26;6.60;;;5.93;;
31210;SDS011;17836;50.948;3.946;2022-07-11T10:28:37;6.38;;;5.82;;
31210;SDS011;17836;50.948;3.946;2022-07-11T10:31:05;6.68;;;6.03;;
31210;SDS011;17836;50.948;3.946;2022-07-11T10:33:41;8.40;;;7.60;;
31210;SDS011;17836;50.948;3.946;2022-07-11T10:36:27;8.63;;;7.82;;
31210;SDS011;17836;50.948;3.946;2022-07-11T10:41:52;8.07;;;7.35;;
31210;SDS011;17836;50.948;3.946;2022-07-11T10:44:17;6.45;;;5.40;;
31210;SDS011;17836;50.948;3.946;2022-07-11T10:46:42;6.55;;;5.85;;
31210;SDS011;17836;50.948;3.946;2022-07-11T10:52:05;6.78;;;5.45;;
31210;SDS011;17836;50.948;3.946;2022-07-11T10:57:12;7.03;;;5.57;;
31210;SDS011;17836;50.948;3.946;2022-07-11T11:08:34;6.88;;;6.03;;
31210;SDS011;17836;50.948;3.946;2022-07-11T11:10:50;6.05;;;5.53;;
31210;SDS011;17836;50.948;3.946;2022-07-11T11:13:15;5.70;;;5.07;;
31210;SDS011;17836;50.948;3.946;2022-07-11T11:15:42;6.32;;;5.40;;
31210;SDS011;17836;50.948;3.946;2022-07-11T11:23:30;6.00;;;5.50;;
31210;SDS011;17836;50.948;3.946;2022-07-11T11:31:20;5.68;;;5.18;;
31210;SDS011;17836;50.948;3.946;2022-07-11T11:33:45;5.75;;;5.18;;
31210;SDS011;17836;50.948;3.946;2022-07-11T11:36:12;6.68;;;5.05;;
31210;SDS011;17836;50.948;3.946;2022-07-11T11:38:40;5.65;;;5.05;;
31210;SDS011;17836;50.948;3.946;2022-07-11T11:41:06;5.68;;;5.18;;
31210;SDS011;17836;50.948;3.946;2022-07-11T11:43:31;5.57;;;5.07;;
31210;SDS011;17836;50.948;3.946;2022-07-11T11:45:57;5.70;;;5.20;;
31210;SDS011;17836;50.948;3.946;2022-07-11T11:48:29;6.05;;;5.40;;
31210;SDS011;17836;50.948;3.946;2022-07-11T11:53:29;4.43;;;4.03;;
31210;SDS011;17836;50.948;3.946;2022-07-11T11:55:59;5.47;;;4.15;;
31210;SDS011;17836;50.948;3.946;2022-07-11T11:58:25;4.43;;;4.03;;
31210;SDS011;17836;50.948;3.946;2022-07-11T12:00:54;5.38;;;4.65;;
31210;SDS011;17836;50.948;3.946;2022-07-11T12:03:20;4.22;;;3.92;;
31210;SDS011;17836;50.948;3.946;2022-07-11T12:05:52;3.90;;;3.60;;
31210;SDS011;17836;50.948;3.946;2022-07-11T12:08:27;4.03;;;3.70;;
31210;SDS011;17836;50.948;3.946;2022-07-11T12:10:54;3.53;;;3.22;;
31210;SDS011;17836;50.948;3.946;2022-07-11T12:13:19;3.08;;;2.78;;
31210;SDS011;17836;50.948;3.946;2022-07-11T12:15:45;2.88;;;2.65;;
31210;SDS011;17836;50.948;3.946;2022-07-11T12:18:29;3.97;;;2.92;;
31210;SDS011;17836;50.948;3.946;2022-07-11T12:20:55;5.13;;;4.63;;
31210;SDS011;17836;50.948;3.946;2022-07-11T12:23:21;4.15;;;3.75;;
31210;SDS011;17836;50.948;3.946;2022-07-11T12:25:49;3.07;;;2.83;;
31210;SDS011;17836;50.948;3.946;2022-07-11T12:28:14;6.30;;;3.88;;
31210;SDS011;17836;50.948;3.946;2022-07-11T12:30:40;3.38;;;3.17;;
31210;SDS011;17836;50.948;3.946;2022-07-11T12:33:09;3.53;;;2.97;;
31210;SDS011;17836;50.948;3.946;2022-07-11T12:35:35;3.33;;;3.13;;
31210;SDS011;17836;50.948;3.946;2022-07-11T12:38:01;3.85;;;3.20;;
31210;SDS011;17836;50.948;3.946;2022-07-11T12:40:26;2.92;;;2.72;;
31210;SDS011;17836;50.948;3.946;2022-07-11T12:42:52;3.35;;;2.45;;
31210;SDS011;17836;50.948;3.946;2022-07-11T12:45:17;3.67;;;3.10;;
31210;SDS011;17836;50.948;3.946;2022-07-11T12:47:47;2.50;;;2.30;;
31210;SDS011;17836;50.948;3.946;2022-07-11T12:50:16;5.00;;;3.25;;
31210;SDS011;17836;50.948;3.946;2022-07-11T12:52:43;2.22;;;2.03;;
31210;SDS011;17836;50.948;3.946;2022-07-11T13:00:28;1.83;;;1.73;;
31210;SDS011;17836;50.948;3.946;2022-07-11T13:02:54;2.45;;;2.20;;
31210;SDS011;17836;50.948;3.946;2022-07-11T13:05:19;2.35;;;2.15;;
31210;SDS011;17836;50.948;3.946;2022-07-11T13:07:45;2.00;;;1.80;;
31210;SDS011;17836;50.948;3.946;2022-07-11T13:10:29;2.08;;;1.80;;
31210;SDS011;17836;50.948;3.946;2022-07-11T13:13:14;2.05;;;1.88;;
31210;SDS011;17836;50.948;3.946;2022-07-11T13:15:40;1.60;;;1.50;;
31210;SDS011;17836;50.948;3.946;2022-07-11T13:18:05;2.73;;;1.47;;
31210;SDS011;17836;50.948;3.946;2022-07-11T13:20:31;1.40;;;1.30;;
31210;SDS011;17836;50.948;3.946;2022-07-11T13:22:58;2.08;;;1.40;;
31210;SDS011;17836;50.948;3.946;2022-07-11T13:25:23;1.13;;;1.07;;
31210;SDS011;17836;50.948;3.946;2022-07-11T13:27:49;1.50;;;1.17;;
31210;SDS011;17836;50.948;3.946;2022-07-11T13:30:16;3.53;;;1.45;;
31210;SDS011;17836;50.948;3.946;2022-07-11T13:32:42;1.35;;;1.25;;
31210;SDS011;17836;50.948;3.946;2022-07-11T13:35:08;1.40;;;1.27;;
31210;SDS011;17836;50.948;3.946;2022-07-11T13:37:34;1.27;;;1.17;;
31210;SDS011;17836;50.948;3.946;2022-07-11T13:40:04;1.30;;;1.20;;
31210;SDS011;17836;50.948;3.946;2022-07-11T13:42:29;1.10;;;1.00;;
31210;SDS011;17836;50.948;3.946;2022-07-11T13:44:57;1.20;;;0.80;;
31210;SDS011;17836;50.948;3.946;2022-07-11T13:47:23;1.10;;;0.98;;
31210;SDS011;17836;50.948;3.946;2022-07-11T13:49:48;1.00;;;0.80;;
31210;SDS011;17836;50.948;3.946;2022-07-11T13:52:13;1.00;;;0.70;;
31210;SDS011;17836;50.948;3.946;2022-07-11T13:54:38;1.10;;;1.00;;
31210;SDS011;17836;50.948;3.946;2022-07-11T13:57:04;1.47;;;0.80;;
31210;SDS011;17836;50.948;3.946;2022-07-11T13:59:29;1.48;;;0.80;;
31210;SDS011;17836;50.948;3.946;2022-07-11T14:01:55;0.90;;;0.90;;
31210;SDS011;17836;50.948;3.946;2022-07-11T14:04:20;1.60;;;1.17;;
31210;SDS011;17836;50.948;3.946;2022-07-11T14:06:45;1.10;;;1.00;;
31210;SDS011;17836;50.948;3.946;2022-07-11T14:09:11;1.92;;;0.70;;
31210;SDS011;17836;50.948;3.946;2022-07-11T14:11:38;1.55;;;0.70;;
31210;SDS011;17836;50.948;3.946;2022-07-11T14:14:03;0.83;;;0.83;;
31210;SDS011;17836;50.948;3.946;2022-07-11T14:16:29;0.70;;;0.70;;
31210;SDS011;17836;50.948;3.946;2022-07-11T14:18:55;0.55;;;0.55;;
31210;SDS011;17836;50.948;3.946;2022-07-11T14:21:20;1.00;;;0.73;;
31210;SDS011;17836;50.948;3.946;2022-07-11T14:23:46;1.08;;;0.80;;
31210;SDS011;17836;50.948;3.946;2022-07-11T14:26:11;1.47;;;0.70;;
31210;SDS011;17836;50.948;3.946;2022-07-11T14:28:36;1.73;;;0.67;;
31210;SDS011;17836;50.948;3.946;2022-07-11T14:31:02;0.50;;;0.50;;
31210;SDS011;17836;50.948;3.946;2022-07-11T14:33:28;0.60;;;0.50;;
31210;SDS011;17836;50.948;3.946;2022-07-11T14:35:53;1.70;;;0.65;;
31210;SDS011;17836;50.948;3.946;2022-07-11T14:38:19;0.60;;;0.60;;
31210;SDS011;17836;50.948;3.946;2022-07-11T14:40:44;0.67;;;0.63;;
31210;SDS011;17836;50.948;3.946;2022-07-11T14:43:10;0.50;;;0.50;;
31210;SDS011;17836;50.948;3.946;2022-07-11T14:45:35;0.90;;;0.70;;
31210;SDS011;17836;50.948;3.946;2022-07-11T14:48:01;0.52;;;0.50;;
31210;SDS011;17836;50.948;3.946;2022-07-11T14:50:27;0.75;;;0.60;;
31210;SDS011;17836;50.948;3.946;2022-07-11T14:52:52;0.57;;;0.52;;
31210;SDS011;17836;50.948;3.946;2022-07-11T14:55:17;0.40;;;0.40;;
31210;SDS011;17836;50.948;3.946;2022-07-11T14:57:43;0.60;;;0.60;;
31210;SDS011;17836;50.948;3.946;2022-07-11T15:00:08;0.70;;;0.50;;
31210;SDS011;17836;50.948;3.946;2022-07-11T15:02:33;3.28;;;0.43;;
31210;SDS011;17836;50.948;3.946;2022-07-11T15:05:17;0.60;;;0.60;;
31210;SDS011;17836;50.948;3.946;2022-07-11T15:07:43;0.75;;;0.70;;
31210;SDS011;17836;50.948;3.946;2022-07-11T15:10:27;0.47;;;0.47;;
31210;SDS011;17836;50.948;3.946;2022-07-11T15:13:11;0.40;;;0.40;;
31210;SDS011;17836;50.948;3.946;2022-07-11T15:15:36;0.40;;;0.40;;
31210;SDS011;17836;50.948;3.946;2022-07-11T15:18:01;1.27;;;0.63;;
31210;SDS011;17836;50.948;3.946;2022-07-11T15:20:27;0.63;;;0.50;;
31210;SDS011;17836;50.948;3.946;2022-07-11T15:22:52;0.60;;;0.60;;
31210;SDS011;17836;50.948;3.946;2022-07-11T15:25:18;1.00;;;0.60;;